Seabourn Spirit — C6FR4 — position and weather

sailwx.info

Track history (hours):
 
Tides and Currents Weather Stations Pressure Air Temp Water Temp Dewpoint Dewpoint Depression Visibility Wind Speed Wind Dir Waves Ship Positions

Seabourn Spirit

Operator: Cunard Seabourn

Last reported at 2017-May-27 01:37 UTC. Time now 2017-May-27 02:17 UTC.
Position N 43°43' E 007°26'.

Length 133 m; draft 5.5 m.

Type: Ship. MMSI: 311083000.

Date/timePositionNaut miles runAvg speedWind from/ knotsBaromVisibWave heightAir tempDewpointWater temp
2017-May-27 01:37N 43°43' E 007°26'0 0.0
2017-May-27 01:28N 43°43' E 007°26'67 8.5
2017-May-26 17:39N 42°57' E 006°20'312.3
2017-May-26 17:26N 42°57' E 006°16'1112.3
2017-May-26 16:32N 42°59' E 006°02'012.7
2017-May-26 16:30N 42°59' E 006°01'612.7
2017-May-26 16:00N 43°00' E 005°52'612.4
2017-May-26 15:30N 43°03' E 005°45'62 3.2
2017-May-25 19:51N 43°32' E 007°01'0 0.0
2017-May-25 06:43N 43°32' E 007°01'41 7.9
2017-May-25 01:30N 43°46' E 007°55'1712.6
2017-May-25 00:07N 43°53' E 008°17'112.4
2017-May-25 00:00N 43°54' E 008°19'712.4
2017-May-24 23:28N 43°57' E 008°27'612.1
2017-May-24 23:00N 43°60' E 008°34'612.1
2017-May-24 22:30N 44°03' E 008°41'611.9
2017-May-24 22:00N 44°06' E 008°48'612.3
2017-May-24 21:30N 44°08' E 008°56'612.5
2017-May-24 21:00N 44°11' E 009°04'612.5
2017-May-24 20:30N 44°13' E 009°12'4 8.9
2017-May-24 20:00N 44°18' E 009°14'1 1.4
2017-May-24 19:16N 44°19' E 009°14'0 0.0
2017-May-24 18:49N 44°19' E 009°14'0 0.0
2017-May-24 18:28N 44°19' E 009°14'0 0.0
2017-May-24 18:00N 44°19' E 009°14'0 0.0
2017-May-24 17:30N 44°19' E 009°14'0 0.0
2017-May-24 16:51N 44°19' E 009°14'0 0.1
2017-May-24 16:30N 44°19' E 009°14'0 0.0
2017-May-24 15:59N 44°19' E 009°14'0 0.0
2017-May-24 15:29N 44°19' E 009°14'0 0.0
2017-May-24 14:53N 44°19' E 009°14'0 0.0
2017-May-24 13:36N 44°19' E 009°14'0 0.0
2017-May-24 13:27N 44°19' E 009°14'0 0.0
2017-May-24 12:57N 44°19' E 009°14'0 0.0
2017-May-24 12:21N 44°19' E 009°14'0 0.0
2017-May-24 11:51N 44°19' E 009°14'0 0.0
2017-May-24 11:27N 44°19' E 009°14'0 0.0
2017-May-24 10:59N 44°19' E 009°14'0 0.0
2017-May-24 10:12N 44°19' E 009°14'0 0.0
2017-May-24 09:57N 44°19' E 009°14'0 0.0
2017-May-24 09:09N 44°19' E 009°14'0 0.1
2017-May-24 09:00N 44°19' E 009°14'0 0.0
2017-May-24 08:30N 44°19' E 009°14'0 0.0
2017-May-24 07:44N 44°19' E 009°14'0 0.0
2017-May-24 07:29N 44°19' E 009°14'0 0.0
2017-May-24 06:53N 44°19' E 009°14'0 0.0
2017-May-24 06:23N 44°19' E 009°14'0 0.5
2017-May-24 05:54N 44°18' E 009°14'3 7.9
2017-May-24 05:30N 44°16' E 009°17'611.5
2017-May-24 05:00N 44°11' E 009°21'612.0
2017-May-24 04:30N 44°05' E 009°23'611.5
2017-May-24 04:00N 44°00' E 009°27'510.6
2017-May-24 03:30N 43°55' E 009°29'612.5
2017-May-24 03:00N 43°49' E 009°32'612.3
2017-May-24 02:30N 43°44' E 009°35'612.4
2017-May-24 02:00N 43°38' E 009°38'612.6
2017-May-24 01:30N 43°32' E 009°41'612.5
2017-May-24 01:00N 43°26' E 009°44'612.6
2017-May-24 00:30N 43°21' E 009°48'713.5
2017-May-24 00:00N 43°16' E 009°55'713.6
2017-May-23 23:30N 43°11' E 010°02'713.6
2017-May-23 23:00N 43°07' E 010°09'713.7
2017-May-23 22:30N 43°02' E 010°16'713.7
2017-May-23 22:00N 42°58' E 010°23'713.3
2017-May-23 21:30N 42°53' E 010°30'612.7
2017-May-23 21:00N 42°48' E 010°34'1013.1
2017-May-23 20:14N 42°40' E 010°43'312.9
2017-May-23 20:00N 42°38' E 010°45'713.1
2017-May-23 19:30N 42°33' E 010°51'713.2
2017-May-23 19:00N 42°28' E 010°57'43 2.9
2017-May-23 04:19N 42°05' E 011°47'0 0.1
2017-May-23 03:51N 42°05' E 011°47'4 4.4
2017-May-23 03:02N 42°05' E 011°42'1 6.8
2017-May-23 02:52N 42°05' E 011°41'3 7.2
2017-May-23 02:24N 42°05' E 011°36'4 6.9
2017-May-23 01:47N 42°06' E 011°31'3 6.7
2017-May-23 01:19N 42°06' E 011°27'3 6.8
2017-May-23 00:57N 42°06' E 011°23'4 7.0
2017-May-23 00:27N 42°07' E 011°19'3 7.2
2017-May-23 00:00N 42°07' E 011°14'4 7.3
2017-May-22 23:27N 42°08' E 011°09'9 7.8
2017-May-22 22:19N 42°12' E 010°58'3 8.4
2017-May-22 22:00N 42°13' E 010°55'7 8.2
2017-May-22 21:11N 42°17' E 010°48'3 8.2
2017-May-22 20:51N 42°19' E 010°45'4 7.5
2017-May-22 20:20N 42°22' E 010°42'3 8.6
2017-May-22 19:59N 42°25' E 010°41'6 9.1
2017-May-22 19:19N 42°31' E 010°39'4 9.1
2017-May-22 18:55N 42°34' E 010°37'6 9.3
2017-May-22 18:19N 42°39' E 010°35'3 9.1
2017-May-22 17:57N 42°42' E 010°34'4 9.5
2017-May-22 17:29N 42°47' E 010°32'5 9.7
2017-May-22 17:00N 42°51' E 010°31'6 7.9
2017-May-22 16:18N 42°54' E 010°24'4 9.0
2017-May-22 15:49N 42°50' E 010°21'2 1.9
2017-May-22 15:00N 42°49' E 010°19'0 0.0
2017-May-22 06:09N 42°49' E 010°19'0 0.0
2017-May-22 05:39N 42°49' E 010°19'0 1.0
2017-May-22 05:30N 42°49' E 010°20'2 4.3
2017-May-22 05:00N 42°51' E 010°21'510.6
2017-May-22 04:30N 42°55' E 010°16'612.4
2017-May-22 04:00N 42°59' E 010°10'612.8
2017-May-22 03:30N 43°04' E 010°05'612.0
2017-May-22 03:00N 43°09' E 009°59'510.2
2017-May-22 02:31N 43°13' E 009°55'5 9.7
2017-May-22 02:00N 43°16' E 009°50'5 9.3
2017-May-22 01:30N 43°20' E 009°46'4 9.1
2017-May-22 01:01N 43°23' E 009°42'5 9.8
2017-May-22 00:31N 43°27' E 009°38'611.4
2017-May-22 00:00N 43°33' E 009°36'611.6
2017-May-21 23:31N 43°38' E 009°33'611.8
2017-May-21 23:00N 43°44' E 009°31'612.2
2017-May-21 22:31N 43°50' E 009°28'612.2
2017-May-21 22:01N 43°55' E 009°26'612.3
2017-May-21 21:31N 44°01' E 009°23'612.6
2017-May-21 21:01N 44°07' E 009°20'612.5
2017-May-21 20:31N 44°13' E 009°17'611.3
2017-May-21 20:01N 44°18' E 009°14'0 0.7
2017-May-21 19:18N 44°19' E 009°14'0 0.0
2017-May-21 18:38N 44°19' E 009°14'0 0.0
2017-May-21 18:27N 44°19' E 009°14'0 0.0
2017-May-21 17:58N 44°19' E 009°14'0 0.0
2017-May-21 17:30N 44°19' E 009°14'0 0.0
2017-May-21 16:59N 44°19' E 009°14'0 0.0
2017-May-21 16:20N 44°19' E 009°14'0 0.1
2017-May-21 15:58N 44°19' E 009°14'0 0.0
2017-May-21 15:26N 44°19' E 009°14'0 0.0
2017-May-21 14:54N 44°19' E 009°14'0 0.0
2017-May-21 14:00N 44°19' E 009°14'0 0.0
2017-May-21 13:21N 44°19' E 009°14'0 0.0
2017-May-21 12:54N 44°19' E 009°14'0 0.0
2017-May-21 12:27N 44°19' E 009°14'0 0.0
2017-May-21 11:47N 44°19' E 009°14'0 0.0
2017-May-21 11:26N 44°19' E 009°14'0 0.0
2017-May-21 10:59N 44°19' E 009°14'0 0.0
2017-May-21 10:29N 44°19' E 009°14'0 0.0
2017-May-21 09:59N 44°19' E 009°14'0 0.0
2017-May-21 09:26N 44°19' E 009°14'0 0.0
2017-May-21 08:46N 44°19' E 009°14'0 0.1
2017-May-21 08:25N 44°19' E 009°14'0 0.0
2017-May-21 07:49N 44°19' E 009°14'0 0.0
2017-May-21 07:25N 44°19' E 009°14'0 0.0
2017-May-21 06:52N 44°19' E 009°14'0 0.1
2017-May-21 06:13N 44°19' E 009°14'0 0.2
2017-May-21 06:00N 44°19' E 009°14'2 4.5
2017-May-21 05:30N 44°17' E 009°16'2 4.0
2017-May-21 05:00N 44°15' E 009°15'4 7.3
2017-May-21 04:30N 44°13' E 009°11'4 7.9
2017-May-21 04:00N 44°12' E 009°06'4 8.0
2017-May-21 03:30N 44°10' E 009°01'4 7.8
2017-May-21 03:00N 44°08' E 008°56'4 7.5
2017-May-21 02:31N 44°06' E 008°52'4 7.4
2017-May-21 02:00N 44°04' E 008°47'4 7.4
2017-May-21 01:30N 44°02' E 008°42'4 7.3
2017-May-21 00:59N 44°01' E 008°38'5 7.3
2017-May-21 00:19N 43°59' E 008°32'2 7.5
2017-May-21 00:00N 43°58' E 008°29'5 9.5
2017-May-20 23:29N 43°56' E 008°23'4 8.9
2017-May-20 23:00N 43°54' E 008°17'5 9.1
2017-May-20 22:29N 43°51' E 008°12'4 9.1
2017-May-20 22:00N 43°49' E 008°06'5 9.1
2017-May-20 21:29N 43°47' E 008°00'4 8.5
2017-May-20 21:00N 43°45' E 007°56'4 7.3
2017-May-20 20:27N 43°43' E 007°50'15 9.7
2017-May-20 18:51N 43°36' E 007°31'410.2
2017-May-20 18:30N 43°35' E 007°27'510.4
2017-May-20 17:59N 43°33' E 007°20'510.5
2017-May-20 17:30N 43°31' E 007°13'510.6
2017-May-20 17:00N 43°30' E 007°06'4 8.0
2017-May-20 16:27N 43°31' E 007°01'54 1.2
2017-May-18 18:53N 42°59' E 006°02'4 9.0
2017-May-18 18:23N 42°59' E 005°56'9 8.6
2017-May-18 17:23N 43°03' E 005°45'3 7.7
2017-May-18 17:00N 43°05' E 005°43'4 2.6
2017-May-18 15:30N 43°07' E 005°48'0 0.0
2017-May-18 14:51N 43°07' E 005°48'0 0.0
2017-May-18 14:16N 43°07' E 005°48'0 0.0
2017-May-18 11:58N 43°06' E 005°48'0 0.0
2017-May-18 05:04N 43°06' E 005°48'2 4.4
2017-May-18 04:39N 43°06' E 005°45'1 8.3
2017-May-18 04:30N 43°06' E 005°44'4 8.6
2017-May-18 04:00N 43°04' E 005°38'4 9.0
2017-May-18 03:30N 43°03' E 005°32'5 9.2
2017-May-18 03:00N 43°02' E 005°26'4 8.9
2017-May-18 02:30N 43°01' E 005°20'4 9.0
2017-May-18 02:00N 42°60' E 005°14'5 9.1
2017-May-18 01:30N 42°58' E 005°08'4 9.0
2017-May-18 01:00N 42°57' E 005°03'4 8.9
2017-May-18 00:30N 42°56' E 004°57'4 8.9
2017-May-18 00:00N 42°55' E 004°51'4 8.9
2017-May-17 23:30N 42°54' E 004°45'5 9.1
2017-May-17 23:00N 42°53' E 004°39'5 9.1
2017-May-17 22:30N 42°52' E 004°33'5 9.1
2017-May-17 22:00N 42°50' E 004°27'5 9.1
2017-May-17 21:30N 42°49' E 004°21'5 9.1
2017-May-17 21:00N 42°47' E 004°15'5 9.3
2017-May-17 20:30N 42°46' E 004°09'510.2
2017-May-17 20:00N 42°44' E 004°03'611.5
2017-May-17 19:30N 42°43' E 003°55'611.6
2017-May-17 19:00N 42°41' E 003°47'611.6
2017-May-17 18:30N 42°39' E 003°40'611.6
2017-May-17 18:00N 42°38' E 003°32'611.7
2017-May-17 17:30N 42°36' E 003°25'14 1.7
2017-May-17 09:08N 42°31' E 003°07'  
Track history (hours):
 
Tides and Currents Weather Stations Pressure Air Temp Water Temp Dewpoint Dewpoint Depression Visibility Wind Speed Wind Dir Waves Ship Positions

Seabourn Spirit

Operator: Cunard Seabourn

Last reported at 2017-May-27 01:37 UTC. Time now 2017-May-27 02:17 UTC.
Position N 43°43' E 007°26'.

Length 133 m; draft 5.5 m.

Type: Ship. MMSI: 311083000.

Date/timePositionNaut miles runAvg speedWind from/ knotsBaromVisibWave heightAir tempDewpointWater temp
2017-May-27 01:37N 43°43' E 007°26'0 0.0
2017-May-27 01:28N 43°43' E 007°26'67 8.5
2017-May-26 17:39N 42°57' E 006°20'312.3
2017-May-26 17:26N 42°57' E 006°16'1112.3
2017-May-26 16:32N 42°59' E 006°02'012.7
2017-May-26 16:30N 42°59' E 006°01'612.7
2017-May-26 16:00N 43°00' E 005°52'612.4
2017-May-26 15:30N 43°03' E 005°45'62 3.2
2017-May-25 19:51N 43°32' E 007°01'0 0.0
2017-May-25 06:43N 43°32' E 007°01'41 7.9
2017-May-25 01:30N 43°46' E 007°55'1712.6
2017-May-25 00:07N 43°53' E 008°17'112.4
2017-May-25 00:00N 43°54' E 008°19'712.4
2017-May-24 23:28N 43°57' E 008°27'612.1
2017-May-24 23:00N 43°60' E 008°34'612.1
2017-May-24 22:30N 44°03' E 008°41'611.9
2017-May-24 22:00N 44°06' E 008°48'612.3
2017-May-24 21:30N 44°08' E 008°56'612.5
2017-May-24 21:00N 44°11' E 009°04'612.5
2017-May-24 20:30N 44°13' E 009°12'4 8.9
2017-May-24 20:00N 44°18' E 009°14'1 1.4
2017-May-24 19:16N 44°19' E 009°14'0 0.0
2017-May-24 18:49N 44°19' E 009°14'0 0.0
2017-May-24 18:28N 44°19' E 009°14'0 0.0
2017-May-24 18:00N 44°19' E 009°14'0 0.0
2017-May-24 17:30N 44°19' E 009°14'0 0.0
2017-May-24 16:51N 44°19' E 009°14'0 0.1
2017-May-24 16:30N 44°19' E 009°14'0 0.0
2017-May-24 15:59N 44°19' E 009°14'0 0.0
2017-May-24 15:29N 44°19' E 009°14'0 0.0
2017-May-24 14:53N 44°19' E 009°14'0 0.0
2017-May-24 13:36N 44°19' E 009°14'0 0.0
2017-May-24 13:27N 44°19' E 009°14'0 0.0
2017-May-24 12:57N 44°19' E 009°14'0 0.0
2017-May-24 12:21N 44°19' E 009°14'0 0.0
2017-May-24 11:51N 44°19' E 009°14'0 0.0
2017-May-24 11:27N 44°19' E 009°14'0 0.0
2017-May-24 10:59N 44°19' E 009°14'0 0.0
2017-May-24 10:12N 44°19' E 009°14'0 0.0
2017-May-24 09:57N 44°19' E 009°14'0 0.0
2017-May-24 09:09N 44°19' E 009°14'0 0.1
2017-May-24 09:00N 44°19' E 009°14'0 0.0
2017-May-24 08:30N 44°19' E 009°14'0 0.0
2017-May-24 07:44N 44°19' E 009°14'0 0.0
2017-May-24 07:29N 44°19' E 009°14'0 0.0
2017-May-24 06:53N 44°19' E 009°14'0 0.0
2017-May-24 06:23N 44°19' E 009°14'0 0.5
2017-May-24 05:54N 44°18' E 009°14'3 7.9
2017-May-24 05:30N 44°16' E 009°17'611.5
2017-May-24 05:00N 44°11' E 009°21'612.0
2017-May-24 04:30N 44°05' E 009°23'611.5
2017-May-24 04:00N 44°00' E 009°27'510.6
2017-May-24 03:30N 43°55' E 009°29'612.5
2017-May-24 03:00N 43°49' E 009°32'612.3
2017-May-24 02:30N 43°44' E 009°35'612.4
2017-May-24 02:00N 43°38' E 009°38'612.6
2017-May-24 01:30N 43°32' E 009°41'612.5
2017-May-24 01:00N 43°26' E 009°44'612.6
2017-May-24 00:30N 43°21' E 009°48'713.5
2017-May-24 00:00N 43°16' E 009°55'713.6
2017-May-23 23:30N 43°11' E 010°02'713.6
2017-May-23 23:00N 43°07' E 010°09'713.7
2017-May-23 22:30N 43°02' E 010°16'713.7
2017-May-23 22:00N 42°58' E 010°23'713.3
2017-May-23 21:30N 42°53' E 010°30'612.7
2017-May-23 21:00N 42°48' E 010°34'1013.1
2017-May-23 20:14N 42°40' E 010°43'312.9
2017-May-23 20:00N 42°38' E 010°45'713.1
2017-May-23 19:30N 42°33' E 010°51'713.2
2017-May-23 19:00N 42°28' E 010°57'43 2.9
2017-May-23 04:19N 42°05' E 011°47'0 0.1
2017-May-23 03:51N 42°05' E 011°47'4 4.4
2017-May-23 03:02N 42°05' E 011°42'1 6.8
2017-May-23 02:52N 42°05' E 011°41'3 7.2
2017-May-23 02:24N 42°05' E 011°36'4 6.9
2017-May-23 01:47N 42°06' E 011°31'3 6.7
2017-May-23 01:19N 42°06' E 011°27'3 6.8
2017-May-23 00:57N 42°06' E 011°23'4 7.0
2017-May-23 00:27N 42°07' E 011°19'3 7.2
2017-May-23 00:00N 42°07' E 011°14'4 7.3
2017-May-22 23:27N 42°08' E 011°09'9 7.8
2017-May-22 22:19N 42°12' E 010°58'3 8.4
2017-May-22 22:00N 42°13' E 010°55'7 8.2
2017-May-22 21:11N 42°17' E 010°48'3 8.2
2017-May-22 20:51N 42°19' E 010°45'4 7.5
2017-May-22 20:20N 42°22' E 010°42'3 8.6
2017-May-22 19:59N 42°25' E 010°41'6 9.1
2017-May-22 19:19N 42°31' E 010°39'4 9.1
2017-May-22 18:55N 42°34' E 010°37'6 9.3
2017-May-22 18:19N 42°39' E 010°35'3 9.1
2017-May-22 17:57N 42°42' E 010°34'4 9.5
2017-May-22 17:29N 42°47' E 010°32'5 9.7
2017-May-22 17:00N 42°51' E 010°31'6 7.9
2017-May-22 16:18N 42°54' E 010°24'4 9.0
2017-May-22 15:49N 42°50' E 010°21'2 1.9
2017-May-22 15:00N 42°49' E 010°19'0 0.0
2017-May-22 06:09N 42°49' E 010°19'0 0.0
2017-May-22 05:39N 42°49' E 010°19'0 1.0
2017-May-22 05:30N 42°49' E 010°20'2 4.3
2017-May-22 05:00N 42°51' E 010°21'510.6
2017-May-22 04:30N 42°55' E 010°16'612.4
2017-May-22 04:00N 42°59' E 010°10'612.8
2017-May-22 03:30N 43°04' E 010°05'612.0
2017-May-22 03:00N 43°09' E 009°59'510.2
2017-May-22 02:31N 43°13' E 009°55'5 9.7
2017-May-22 02:00N 43°16' E 009°50'5 9.3
2017-May-22 01:30N 43°20' E 009°46'4 9.1
2017-May-22 01:01N 43°23' E 009°42'5 9.8
2017-May-22 00:31N 43°27' E 009°38'611.4
2017-May-22 00:00N 43°33' E 009°36'611.6
2017-May-21 23:31N 43°38' E 009°33'611.8
2017-May-21 23:00N 43°44' E 009°31'612.2
2017-May-21 22:31N 43°50' E 009°28'612.2
2017-May-21 22:01N 43°55' E 009°26'612.3
2017-May-21 21:31N 44°01' E 009°23'612.6
2017-May-21 21:01N 44°07' E 009°20'612.5
2017-May-21 20:31N 44°13' E 009°17'611.3
2017-May-21 20:01N 44°18' E 009°14'0 0.7
2017-May-21 19:18N 44°19' E 009°14'0 0.0
2017-May-21 18:38N 44°19' E 009°14'0 0.0
2017-May-21 18:27N 44°19' E 009°14'0 0.0
2017-May-21 17:58N 44°19' E 009°14'0 0.0
2017-May-21 17:30N 44°19' E 009°14'0 0.0
2017-May-21 16:59N 44°19' E 009°14'0 0.0
2017-May-21 16:20N 44°19' E 009°14'0 0.1
2017-May-21 15:58N 44°19' E 009°14'0 0.0
2017-May-21 15:26N 44°19' E 009°14'0 0.0
2017-May-21 14:54N 44°19' E 009°14'0 0.0
2017-May-21 14:00N 44°19' E 009°14'0 0.0
2017-May-21 13:21N 44°19' E 009°14'0 0.0
2017-May-21 12:54N 44°19' E 009°14'0 0.0
2017-May-21 12:27N 44°19' E 009°14'0 0.0
2017-May-21 11:47N 44°19' E 009°14'0 0.0
2017-May-21 11:26N 44°19' E 009°14'0 0.0
2017-May-21 10:59N 44°19' E 009°14'0 0.0
2017-May-21 10:29N 44°19' E 009°14'0 0.0
2017-May-21 09:59N 44°19' E 009°14'0 0.0
2017-May-21 09:26N 44°19' E 009°14'0 0.0
2017-May-21 08:46N 44°19' E 009°14'0 0.1
2017-May-21 08:25N 44°19' E 009°14'0 0.0
2017-May-21 07:49N 44°19' E 009°14'0 0.0
2017-May-21 07:25N 44°19' E 009°14'0 0.0
2017-May-21 06:52N 44°19' E 009°14'0 0.1
2017-May-21 06:13N 44°19' E 009°14'0 0.2
2017-May-21 06:00N 44°19' E 009°14'2 4.5
2017-May-21 05:30N 44°17' E 009°16'2 4.0
2017-May-21 05:00N 44°15' E 009°15'4 7.3
2017-May-21 04:30N 44°13' E 009°11'4 7.9
2017-May-21 04:00N 44°12' E 009°06'4 8.0
2017-May-21 03:30N 44°10' E 009°01'4 7.8
2017-May-21 03:00N 44°08' E 008°56'4 7.5
2017-May-21 02:31N 44°06' E 008°52'4 7.4
2017-May-21 02:00N 44°04' E 008°47'4 7.4
2017-May-21 01:30N 44°02' E 008°42'4 7.3
2017-May-21 00:59N 44°01' E 008°38'5 7.3
2017-May-21 00:19N 43°59' E 008°32'2 7.5
2017-May-21 00:00N 43°58' E 008°29'5 9.5
2017-May-20 23:29N 43°56' E 008°23'4 8.9
2017-May-20 23:00N 43°54' E 008°17'5 9.1
2017-May-20 22:29N 43°51' E 008°12'4 9.1
2017-May-20 22:00N 43°49' E 008°06'5 9.1
2017-May-20 21:29N 43°47' E 008°00'4 8.5
2017-May-20 21:00N 43°45' E 007°56'4 7.3
2017-May-20 20:27N 43°43' E 007°50'15 9.7
2017-May-20 18:51N 43°36' E 007°31'410.2
2017-May-20 18:30N 43°35' E 007°27'510.4
2017-May-20 17:59N 43°33' E 007°20'510.5
2017-May-20 17:30N 43°31' E 007°13'510.6
2017-May-20 17:00N 43°30' E 007°06'4 8.0
2017-May-20 16:27N 43°31' E 007°01'54 1.2
2017-May-18 18:53N 42°59' E 006°02'4 9.0
2017-May-18 18:23N 42°59' E 005°56'9 8.6
2017-May-18 17:23N 43°03' E 005°45'3 7.7
2017-May-18 17:00N 43°05' E 005°43'4 2.6
2017-May-18 15:30N 43°07' E 005°48'0 0.0
2017-May-18 14:51N 43°07' E 005°48'0 0.0
2017-May-18 14:16N 43°07' E 005°48'0 0.0
2017-May-18 11:58N 43°06' E 005°48'0 0.0
2017-May-18 05:04N 43°06' E 005°48'2 4.4
2017-May-18 04:39N 43°06' E 005°45'1 8.3
2017-May-18 04:30N 43°06' E 005°44'4 8.6
2017-May-18 04:00N 43°04' E 005°38'4 9.0
2017-May-18 03:30N 43°03' E 005°32'5 9.2
2017-May-18 03:00N 43°02' E 005°26'4 8.9
2017-May-18 02:30N 43°01' E 005°20'4 9.0
2017-May-18 02:00N 42°60' E 005°14'5 9.1
2017-May-18 01:30N 42°58' E 005°08'4 9.0
2017-May-18 01:00N 42°57' E 005°03'4 8.9
2017-May-18 00:30N 42°56' E 004°57'4 8.9
2017-May-18 00:00N 42°55' E 004°51'4 8.9
2017-May-17 23:30N 42°54' E 004°45'5 9.1
2017-May-17 23:00N 42°53' E 004°39'5 9.1
2017-May-17 22:30N 42°52' E 004°33'5 9.1
2017-May-17 22:00N 42°50' E 004°27'5 9.1
2017-May-17 21:30N 42°49' E 004°21'5 9.1
2017-May-17 21:00N 42°47' E 004°15'5 9.3
2017-May-17 20:30N 42°46' E 004°09'510.2
2017-May-17 20:00N 42°44' E 004°03'611.5
2017-May-17 19:30N 42°43' E 003°55'611.6
2017-May-17 19:00N 42°41' E 003°47'611.6
2017-May-17 18:30N 42°39' E 003°40'611.6
2017-May-17 18:00N 42°38' E 003°32'611.7
2017-May-17 17:30N 42°36' E 003°25'14 1.7
2017-May-17 09:08N 42°31' E 003°07'  

Dump ship's entire track history